sensor_id;sensor_type;location;lat;lon;timestamp;pressure;altitude;pressure_sealevel;temperature;humidity
31532;BME280;23787;52.180;5.288;2022-08-06T00:02:48;102390.0;;;13.1;100.0
31532;BME280;23787;52.180;5.288;2022-08-06T00:07:48;102400.0;;;12.9;100.0
31532;BME280;23787;52.180;5.288;2022-08-06T00:12:48;102400.0;;;12.7;100.0
31532;BME280;23787;52.180;5.288;2022-08-06T00:17:48;102409.99999999999;;;12.8;100.0
31532;BME280;23787;52.180;5.288;2022-08-06T00:22:48;102409.99999999999;;;12.9;100.0
31532;BME280;23787;52.180;5.288;2022-08-06T00:27:48;102409.99999999999;;;12.7;100.0
31532;BME280;23787;52.180;5.288;2022-08-06T00:32:48;102420.0;;;12.8;100.0
31532;BME280;23787;52.180;5.288;2022-08-06T00:37:48;102420.0;;;12.6;100.0
31532;BME280;23787;52.180;5.288;2022-08-06T00:42:49;102430.0;;;12.5;100.0
31532;BME280;23787;52.180;5.288;2022-08-06T00:47:48;102440.00000000001;;;12.4;100.0
31532;BME280;23787;52.180;5.288;2022-08-06T00:52:48;102440.00000000001;;;12.3;100.0
31532;BME280;23787;52.180;5.288;2022-08-06T00:57:48;102450.0;;;12.1;100.0
31532;BME280;23787;52.180;5.288;2022-08-06T01:02:48;102450.0;;;12.3;100.0
31532;BME280;23787;52.180;5.288;2022-08-06T01:07:48;102450.0;;;12.2;100.0
31532;BME280;23787;52.180;5.288;2022-08-06T01:12:48;102450.0;;;12.4;100.0
31532;BME280;23787;52.180;5.288;2022-08-06T01:22:56;102450.0;;;12.1;100.0
31532;BME280;23787;52.180;5.288;2022-08-06T01:37:50;102470.0;;;12.0;100.0
31532;BME280;23787;52.180;5.288;2022-08-06T01:42:48;102470.0;;;12.1;100.0
31532;BME280;23787;52.180;5.288;2022-08-06T01:47:52;102459.99999999999;;;12.0;100.0
31532;BME280;23787;52.180;5.288;2022-08-06T01:57:50;102480.0;;;11.7;100.0
31532;BME280;23787;52.180;5.288;2022-08-06T02:02:48;102480.0;;;11.8;100.0
31532;BME280;23787;52.180;5.288;2022-08-06T02:07:49;102490.00000000001;;;11.7;100.0
31532;BME280;23787;52.180;5.288;2022-08-06T02:12:48;102490.00000000001;;;11.6;100.0
31532;BME280;23787;52.180;5.288;2022-08-06T02:27:49;102490.00000000001;;;11.5;100.0
31532;BME280;23787;52.180;5.288;2022-08-06T02:42:49;102490.00000000001;;;11.7;100.0
31532;BME280;23787;52.180;5.288;2022-08-06T02:47:49;102480.0;;;11.5;100.0
31532;BME280;23787;52.180;5.288;2022-08-06T02:52:49;102490.00000000001;;;11.4;100.0
31532;BME280;23787;52.180;5.288;2022-08-06T02:57:49;102490.00000000001;;;11.5;100.0
31532;BME280;23787;52.180;5.288;2022-08-06T03:02:48;102490.00000000001;;;11.4;100.0
31532;BME280;23787;52.180;5.288;2022-08-06T03:07:48;102500.0;;;11.5;100.0
31532;BME280;23787;52.180;5.288;2022-08-06T03:12:48;102500.0;;;11.4;100.0
31532;BME280;23787;52.180;5.288;2022-08-06T03:17:48;102500.0;;;11.6;100.0
31532;BME280;23787;52.180;5.288;2022-08-06T03:22:50;102500.0;;;11.3;100.0
31532;BME280;23787;52.180;5.288;2022-08-06T03:27:48;102500.0;;;11.4;100.0
31532;BME280;23787;52.180;5.288;2022-08-06T03:37:48;102500.0;;;11.3;100.0
31532;BME280;23787;52.180;5.288;2022-08-06T03:42:48;102509.99999999999;;;11.2;100.0
31532;BME280;23787;52.180;5.288;2022-08-06T03:47:51;102520.0;;;11.1;100.0
31532;BME280;23787;52.180;5.288;2022-08-06T03:52:50;102530.0;;;11.0;100.0
31532;BME280;23787;52.180;5.288;2022-08-06T03:57:49;102530.0;;;11.1;100.0
31532;BME280;23787;52.180;5.288;2022-08-06T04:12:48;102540.00000000001;;;11.0;100.0
31532;BME280;23787;52.180;5.288;2022-08-06T04:27:48;102540.00000000001;;;10.9;100.0
31532;BME280;23787;52.180;5.288;2022-08-06T04:32:48;102550.0;;;11.0;100.0
31532;BME280;23787;52.180;5.288;2022-08-06T04:52:48;102550.0;;;10.9;100.0
31532;BME280;23787;52.180;5.288;2022-08-06T04:57:48;102550.0;;;11.1;100.0
31532;BME280;23787;52.180;5.288;2022-08-06T05:07:48;102570.0;;;11.6;100.0
31532;BME280;23787;52.180;5.288;2022-08-06T05:12:49;102570.0;;;11.9;100.0
31532;BME280;23787;52.180;5.288;2022-08-06T05:22:49;102580.0;;;12.0;100.0
31532;BME280;23787;52.180;5.288;2022-08-06T05:27:48;102580.0;;;12.2;100.0
31532;BME280;23787;52.180;5.288;2022-08-06T05:32:48;102590.00000000001;;;12.4;100.0
31532;BME280;23787;52.180;5.288;2022-08-06T05:37:48;102580.0;;;12.7;100.0
31532;BME280;23787;52.180;5.288;2022-08-06T05:42:48;102580.0;;;13.1;100.0
31532;BME280;23787;52.180;5.288;2022-08-06T05:47:48;102600.0;;;13.9;100.0
31532;BME280;23787;52.180;5.288;2022-08-06T05:52:50;102600.0;;;15.6;100.0
31532;BME280;23787;52.180;5.288;2022-08-06T05:57:49;102590.00000000001;;;17.4;100.0
31532;BME280;23787;52.180;5.288;2022-08-06T06:02:50;102590.00000000001;;;18.8;100.0
31532;BME280;23787;52.180;5.288;2022-08-06T06:07:49;102590.00000000001;;;19.6;100.0
31532;BME280;23787;52.180;5.288;2022-08-06T06:12:49;102590.00000000001;;;20.7;100.0
31532;BME280;23787;52.180;5.288;2022-08-06T06:17:51;102600.0;;;21.3;100.0
31532;BME280;23787;52.180;5.288;2022-08-06T06:22:50;102600.0;;;21.9;100.0
31532;BME280;23787;52.180;5.288;2022-08-06T06:27:50;102609.99999999999;;;21.8;100.0
31532;BME280;23787;52.180;5.288;2022-08-06T06:32:50;102620.0;;;22.2;100.0
31532;BME280;23787;52.180;5.288;2022-08-06T06:37:51;102620.0;;;22.3;100.0
31532;BME280;23787;52.180;5.288;2022-08-06T06:42:51;102620.0;;;24.2;100.0
31532;BME280;23787;52.180;5.288;2022-08-06T06:47:51;102620.0;;;25.9;100.0
31532;BME280;23787;52.180;5.288;2022-08-06T06:52:49;102620.0;;;26.3;100.0
31532;BME280;23787;52.180;5.288;2022-08-06T06:57:49;102620.0;;;26.6;100.0
31532;BME280;23787;52.180;5.288;2022-08-06T07:02:48;102620.0;;;27.4;100.0
31532;BME280;23787;52.180;5.288;2022-08-06T07:07:48;102620.0;;;27.3;90.5
31532;BME280;23787;52.180;5.288;2022-08-06T07:12:48;102630.0;;;27.4;88.5
31532;BME280;23787;52.180;5.288;2022-08-06T07:17:48;102630.0;;;27.9;88.5
31532;BME280;23787;52.180;5.288;2022-08-06T07:22:48;102640.00000000001;;;28.3;73.6
31532;BME280;23787;52.180;5.288;2022-08-06T07:42:50;102640.00000000001;;;30.3;48.9
31532;BME280;23787;52.180;5.288;2022-08-06T07:47:48;102640.00000000001;;;29.4;50.2
31532;BME280;23787;52.180;5.288;2022-08-06T07:52:48;102640.00000000001;;;28.7;54.9
31532;BME280;23787;52.180;5.288;2022-08-06T07:57:48;102640.00000000001;;;31.5;47.4
31532;BME280;23787;52.180;5.288;2022-08-06T08:02:49;102659.99999999999;;;32.1;43.0
31532;BME280;23787;52.180;5.288;2022-08-06T08:07:48;102650.0;;;31.2;42.2
31532;BME280;23787;52.180;5.288;2022-08-06T08:12:48;102650.0;;;29.9;39.7
31532;BME280;23787;52.180;5.288;2022-08-06T08:17:48;102659.99999999999;;;33.3;38.1
31532;BME280;23787;52.180;5.288;2022-08-06T08:22:48;102659.99999999999;;;31.6;38.1
31532;BME280;23787;52.180;5.288;2022-08-06T08:27:48;102650.0;;;27.2;41.7
31532;BME280;23787;52.180;5.288;2022-08-06T08:32:48;102659.99999999999;;;32.5;35.1
31532;BME280;23787;52.180;5.288;2022-08-06T08:37:48;102659.99999999999;;;30.6;35.1
31532;BME280;23787;52.180;5.288;2022-08-06T08:42:49;102659.99999999999;;;33.2;35.2
31532;BME280;23787;52.180;5.288;2022-08-06T08:47:50;102659.99999999999;;;34.0;32.9
31532;BME280;23787;52.180;5.288;2022-08-06T08:52:49;102659.99999999999;;;31.0;39.5
31532;BME280;23787;52.180;5.288;2022-08-06T08:57:48;102659.99999999999;;;33.3;34.5
31532;BME280;23787;52.180;5.288;2022-08-06T09:02:48;102650.0;;;32.8;33.0
31532;BME280;23787;52.180;5.288;2022-08-06T09:07:48;102650.0;;;33.5;33.0
31532;BME280;23787;52.180;5.288;2022-08-06T09:12:48;102659.99999999999;;;33.4;34.6
31532;BME280;23787;52.180;5.288;2022-08-06T09:17:48;102670.0;;;34.8;31.5
31532;BME280;23787;52.180;5.288;2022-08-06T09:22:48;102670.0;;;29.2;36.3
31532;BME280;23787;52.180;5.288;2022-08-06T09:27:48;102670.0;;;31.5;35.8
31532;BME280;23787;52.180;5.288;2022-08-06T09:32:48;102670.0;;;29.6;35.8
31532;BME280;23787;52.180;5.288;2022-08-06T09:37:49;102680.0;;;30.5;38.4
31532;BME280;23787;52.180;5.288;2022-08-06T09:42:49;102680.0;;;32.1;32.7
31532;BME280;23787;52.180;5.288;2022-08-06T09:47:49;102670.0;;;28.6;33.7
31532;BME280;23787;52.180;5.288;2022-08-06T09:52:55;102670.0;;;34.1;33.7
31532;BME280;23787;52.180;5.288;2022-08-06T09:57:48;102670.0;;;33.4;30.6
31532;BME280;23787;52.180;5.288;2022-08-06T10:02:48;102659.99999999999;;;32.7;34.0
31532;BME280;23787;52.180;5.288;2022-08-06T10:08:00;102659.99999999999;;;27.5;34.0
31532;BME280;23787;52.180;5.288;2022-08-06T10:12:48;102659.99999999999;;;34.8;36.1
31532;BME280;23787;52.180;5.288;2022-08-06T10:17:48;102670.0;;;34.7;29.8
31532;BME280;23787;52.180;5.288;2022-08-06T10:22:49;102670.0;;;35.7;27.8
31532;BME280;23787;52.180;5.288;2022-08-06T10:27:48;102659.99999999999;;;33.0;30.2
31532;BME280;23787;52.180;5.288;2022-08-06T10:32:51;102670.0;;;31.9;31.3
31532;BME280;23787;52.180;5.288;2022-08-06T10:37:49;102670.0;;;32.1;30.9
31532;BME280;23787;52.180;5.288;2022-08-06T10:47:48;102659.99999999999;;;31.9;32.3
31532;BME280;23787;52.180;5.288;2022-08-06T10:52:48;102659.99999999999;;;29.8;33.7
31532;BME280;23787;52.180;5.288;2022-08-06T10:57:48;102659.99999999999;;;30.0;35.4
31532;BME280;23787;52.180;5.288;2022-08-06T11:02:51;102650.0;;;29.1;37.4
31532;BME280;23787;52.180;5.288;2022-08-06T11:07:53;102659.99999999999;;;30.1;39.8
31532;BME280;23787;52.180;5.288;2022-08-06T11:12:49;102659.99999999999;;;29.2;39.8
31532;BME280;23787;52.180;5.288;2022-08-06T11:17:49;102659.99999999999;;;28.2;41.2
31532;BME280;23787;52.180;5.288;2022-08-06T11:22:48;102650.0;;;26.5;45.9
31532;BME280;23787;52.180;5.288;2022-08-06T11:27:49;102650.0;;;26.6;45.9
31532;BME280;23787;52.180;5.288;2022-08-06T11:32:50;102650.0;;;28.2;44.5
31532;BME280;23787;52.180;5.288;2022-08-06T11:37:48;102650.0;;;27.9;42.8
31532;BME280;23787;52.180;5.288;2022-08-06T11:42:48;102650.0;;;27.2;42.8
31532;BME280;23787;52.180;5.288;2022-08-06T11:52:49;102650.0;;;26.9;53.5
31532;BME280;23787;52.180;5.288;2022-08-06T11:57:48;102650.0;;;26.3;49.8
31532;BME280;23787;52.180;5.288;2022-08-06T12:02:51;102640.00000000001;;;26.5;48.8
31532;BME280;23787;52.180;5.288;2022-08-06T12:12:49;102630.0;;;26.5;51.0
31532;BME280;23787;52.180;5.288;2022-08-06T12:17:56;102630.0;;;27.8;51.0
31532;BME280;23787;52.180;5.288;2022-08-06T12:22:49;102620.0;;;25.6;47.1
31532;BME280;23787;52.180;5.288;2022-08-06T12:27:48;102630.0;;;29.6;47.1
31532;BME280;23787;52.180;5.288;2022-08-06T12:32:48;102620.0;;;26.0;53.4
31532;BME280;23787;52.180;5.288;2022-08-06T12:37:48;102620.0;;;27.0;51.1
31532;BME280;23787;52.180;5.288;2022-08-06T12:42:49;102609.99999999999;;;28.5;51.1
31532;BME280;23787;52.180;5.288;2022-08-06T12:47:56;102609.99999999999;;;27.4;44.4
31532;BME280;23787;52.180;5.288;2022-08-06T12:57:48;102609.99999999999;;;25.4;46.4
31532;BME280;23787;52.180;5.288;2022-08-06T13:02:48;102609.99999999999;;;25.9;46.4
31532;BME280;23787;52.180;5.288;2022-08-06T13:07:48;102609.99999999999;;;26.9;50.3
31532;BME280;23787;52.180;5.288;2022-08-06T13:12:52;102600.0;;;24.2;47.9
31532;BME280;23787;52.180;5.288;2022-08-06T13:22:49;102600.0;;;25.9;56.7
31532;BME280;23787;52.180;5.288;2022-08-06T13:27:49;102590.00000000001;;;26.9;45.9
31532;BME280;23787;52.180;5.288;2022-08-06T13:32:48;102590.00000000001;;;27.5;45.9
31532;BME280;23787;52.180;5.288;2022-08-06T13:37:49;102590.00000000001;;;26.2;45.5
31532;BME280;23787;52.180;5.288;2022-08-06T13:47:49;102580.0;;;25.2;49.7
31532;BME280;23787;52.180;5.288;2022-08-06T13:52:48;102590.00000000001;;;26.0;50.8
31532;BME280;23787;52.180;5.288;2022-08-06T13:57:49;102590.00000000001;;;25.3;52.8
31532;BME280;23787;52.180;5.288;2022-08-06T14:07:49;102580.0;;;26.5;49.2
31532;BME280;23787;52.180;5.288;2022-08-06T14:12:49;102580.0;;;26.0;52.1
31532;BME280;23787;52.180;5.288;2022-08-06T14:17:48;102580.0;;;25.1;52.1
31532;BME280;23787;52.180;5.288;2022-08-06T14:22:49;102580.0;;;25.9;52.4
31532;BME280;23787;52.180;5.288;2022-08-06T14:27:49;102580.0;;;25.3;54.7
31532;BME280;23787;52.180;5.288;2022-08-06T14:37:49;102559.99999999999;;;24.8;53.4
31532;BME280;23787;52.180;5.288;2022-08-06T14:42:48;102559.99999999999;;;24.9;59.1
31532;BME280;23787;52.180;5.288;2022-08-06T14:47:49;102559.99999999999;;;25.0;53.9
31532;BME280;23787;52.180;5.288;2022-08-06T14:52:49;102570.0;;;24.0;64.0
31532;BME280;23787;52.180;5.288;2022-08-06T14:57:49;102550.0;;;24.3;70.1
31532;BME280;23787;52.180;5.288;2022-08-06T15:02:48;102559.99999999999;;;24.1;70.1
31532;BME280;23787;52.180;5.288;2022-08-06T15:07:48;102559.99999999999;;;24.5;71.6
31532;BME280;23787;52.180;5.288;2022-08-06T15:12:49;102559.99999999999;;;23.5;72.1
31532;BME280;23787;52.180;5.288;2022-08-06T15:17:49;102550.0;;;24.0;70.0
31532;BME280;23787;52.180;5.288;2022-08-06T15:22:49;102550.0;;;23.8;70.0
31532;BME280;23787;52.180;5.288;2022-08-06T15:27:49;102550.0;;;23.6;78.9
31532;BME280;23787;52.180;5.288;2022-08-06T15:32:49;102550.0;;;24.0;78.9
31532;BME280;23787;52.180;5.288;2022-08-06T15:37:49;102540.00000000001;;;23.4;73.6
31532;BME280;23787;52.180;5.288;2022-08-06T15:42:48;102540.00000000001;;;23.9;73.6
31532;BME280;23787;52.180;5.288;2022-08-06T15:52:49;102530.0;;;22.5;75.1
31532;BME280;23787;52.180;5.288;2022-08-06T15:57:49;102530.0;;;23.5;78.4
31532;BME280;23787;52.180;5.288;2022-08-06T16:02:49;102530.0;;;23.2;76.9
31532;BME280;23787;52.180;5.288;2022-08-06T16:07:49;102530.0;;;21.7;94.7
31532;BME280;23787;52.180;5.288;2022-08-06T16:12:49;102530.0;;;23.1;94.7
31532;BME280;23787;52.180;5.288;2022-08-06T16:17:49;102530.0;;;22.8;94.2
31532;BME280;23787;52.180;5.288;2022-08-06T16:22:49;102530.0;;;21.8;94.2
31532;BME280;23787;52.180;5.288;2022-08-06T16:27:49;102530.0;;;22.0;99.5
31532;BME280;23787;52.180;5.288;2022-08-06T16:32:49;102530.0;;;21.6;99.5
31532;BME280;23787;52.180;5.288;2022-08-06T16:37:49;102530.0;;;21.8;100.0
31532;BME280;23787;52.180;5.288;2022-08-06T16:47:49;102530.0;;;21.0;100.0
31532;BME280;23787;52.180;5.288;2022-08-06T16:52:49;102509.99999999999;;;21.7;100.0
31532;BME280;23787;52.180;5.288;2022-08-06T16:57:49;102520.0;;;21.9;100.0
31532;BME280;23787;52.180;5.288;2022-08-06T17:02:49;102520.0;;;22.0;100.0
31532;BME280;23787;52.180;5.288;2022-08-06T17:12:49;102520.0;;;21.6;100.0
31532;BME280;23787;52.180;5.288;2022-08-06T17:17:49;102520.0;;;21.8;100.0
31532;BME280;23787;52.180;5.288;2022-08-06T17:22:49;102520.0;;;21.7;100.0
31532;BME280;23787;52.180;5.288;2022-08-06T17:27:49;102520.0;;;21.4;100.0
31532;BME280;23787;52.180;5.288;2022-08-06T17:32:49;102520.0;;;21.1;100.0
31532;BME280;23787;52.180;5.288;2022-08-06T17:37:49;102520.0;;;21.0;100.0
31532;BME280;23787;52.180;5.288;2022-08-06T17:42:49;102520.0;;;21.4;100.0
31532;BME280;23787;52.180;5.288;2022-08-06T17:47:49;102520.0;;;21.1;100.0
31532;BME280;23787;52.180;5.288;2022-08-06T17:52:49;102530.0;;;21.0;100.0
31532;BME280;23787;52.180;5.288;2022-08-06T17:57:49;102530.0;;;20.9;100.0
31532;BME280;23787;52.180;5.288;2022-08-06T18:02:49;102530.0;;;20.5;100.0
31532;BME280;23787;52.180;5.288;2022-08-06T18:07:49;102530.0;;;20.4;100.0
31532;BME280;23787;52.180;5.288;2022-08-06T18:12:49;102530.0;;;20.7;100.0
31532;BME280;23787;52.180;5.288;2022-08-06T18:22:49;102530.0;;;20.1;100.0
31532;BME280;23787;52.180;5.288;2022-08-06T18:32:49;102540.00000000001;;;20.2;100.0
31532;BME280;23787;52.180;5.288;2022-08-06T18:37:49;102550.0;;;20.0;100.0
31532;BME280;23787;52.180;5.288;2022-08-06T18:42:49;102550.0;;;19.4;100.0
31532;BME280;23787;52.180;5.288;2022-08-06T18:47:49;102550.0;;;19.9;100.0
31532;BME280;23787;52.180;5.288;2022-08-06T18:52:49;102550.0;;;19.5;100.0
31532;BME280;23787;52.180;5.288;2022-08-06T18:57:49;102550.0;;;19.6;100.0
31532;BME280;23787;52.180;5.288;2022-08-06T19:02:49;102550.0;;;19.1;100.0
31532;BME280;23787;52.180;5.288;2022-08-06T19:07:49;102550.0;;;18.8;100.0
31532;BME280;23787;52.180;5.288;2022-08-06T19:12:49;102550.0;;;19.4;100.0
31532;BME280;23787;52.180;5.288;2022-08-06T19:17:49;102559.99999999999;;;19.0;100.0
31532;BME280;23787;52.180;5.288;2022-08-06T19:22:49;102559.99999999999;;;19.2;100.0
31532;BME280;23787;52.180;5.288;2022-08-06T19:27:49;102570.0;;;18.9;100.0
31532;BME280;23787;52.180;5.288;2022-08-06T19:32:49;102570.0;;;18.8;100.0
31532;BME280;23787;52.180;5.288;2022-08-06T19:37:49;102570.0;;;18.4;100.0
31532;BME280;23787;52.180;5.288;2022-08-06T19:42:49;102570.0;;;18.3;100.0
31532;BME280;23787;52.180;5.288;2022-08-06T19:47:49;102570.0;;;18.0;100.0
31532;BME280;23787;52.180;5.288;2022-08-06T19:57:49;102580.0;;;17.9;100.0
31532;BME280;23787;52.180;5.288;2022-08-06T20:02:49;102590.00000000001;;;17.8;100.0
31532;BME280;23787;52.180;5.288;2022-08-06T20:12:49;102590.00000000001;;;17.7;100.0
31532;BME280;23787;52.180;5.288;2022-08-06T20:17:49;102600.0;;;17.2;100.0
31532;BME280;23787;52.180;5.288;2022-08-06T20:27:49;102600.0;;;17.1;100.0
31532;BME280;23787;52.180;5.288;2022-08-06T20:32:49;102600.0;;;17.2;100.0
31532;BME280;23787;52.180;5.288;2022-08-06T20:37:49;102600.0;;;17.0;100.0
31532;BME280;23787;52.180;5.288;2022-08-06T20:42:49;102600.0;;;16.7;100.0
31532;BME280;23787;52.180;5.288;2022-08-06T20:47:49;102600.0;;;16.5;100.0
31532;BME280;23787;52.180;5.288;2022-08-06T20:57:49;102609.99999999999;;;16.3;100.0
31532;BME280;23787;52.180;5.288;2022-08-06T21:02:49;102609.99999999999;;;16.4;100.0
31532;BME280;23787;52.180;5.288;2022-08-06T21:12:49;102609.99999999999;;;16.3;100.0
31532;BME280;23787;52.180;5.288;2022-08-06T21:17:49;102609.99999999999;;;16.2;100.0
31532;BME280;23787;52.180;5.288;2022-08-06T21:22:49;102609.99999999999;;;16.0;100.0
31532;BME280;23787;52.180;5.288;2022-08-06T21:32:50;102609.99999999999;;;15.9;100.0
31532;BME280;23787;52.180;5.288;2022-08-06T21:42:49;102609.99999999999;;;15.7;100.0
31532;BME280;23787;52.180;5.288;2022-08-06T21:47:49;102600.0;;;15.6;100.0
31532;BME280;23787;52.180;5.288;2022-08-06T21:52:49;102600.0;;;15.7;100.0
31532;BME280;23787;52.180;5.288;2022-08-06T21:57:49;102600.0;;;15.4;100.0
31532;BME280;23787;52.180;5.288;2022-08-06T22:12:49;102590.00000000001;;;15.3;100.0
31532;BME280;23787;52.180;5.288;2022-08-06T22:17:49;102590.00000000001;;;15.1;100.0
31532;BME280;23787;52.180;5.288;2022-08-06T22:22:49;102590.00000000001;;;14.9;100.0
31532;BME280;23787;52.180;5.288;2022-08-06T22:27:49;102580.0;;;15.1;100.0
31532;BME280;23787;52.180;5.288;2022-08-06T22:32:49;102580.0;;;14.7;100.0
31532;BME280;23787;52.180;5.288;2022-08-06T22:37:49;102580.0;;;14.9;100.0
31532;BME280;23787;52.180;5.288;2022-08-06T22:42:49;102580.0;;;14.8;100.0
31532;BME280;23787;52.180;5.288;2022-08-06T22:47:49;102580.0;;;14.5;100.0
31532;BME280;23787;52.180;5.288;2022-08-06T22:52:49;102580.0;;;14.3;100.0
31532;BME280;23787;52.180;5.288;2022-08-06T22:57:49;102570.0;;;14.4;100.0
31532;BME280;23787;52.180;5.288;2022-08-06T23:02:49;102570.0;;;14.5;100.0
31532;BME280;23787;52.180;5.288;2022-08-06T23:07:49;102570.0;;;14.4;100.0
31532;BME280;23787;52.180;5.288;2022-08-06T23:12:49;102570.0;;;14.2;100.0
31532;BME280;23787;52.180;5.288;2022-08-06T23:17:49;102559.99999999999;;;14.3;100.0
31532;BME280;23787;52.180;5.288;2022-08-06T23:27:49;102559.99999999999;;;14.0;100.0
31532;BME280;23787;52.180;5.288;2022-08-06T23:32:49;102550.0;;;14.1;100.0
31532;BME280;23787;52.180;5.288;2022-08-06T23:37:49;102550.0;;;14.0;100.0
31532;BME280;23787;52.180;5.288;2022-08-06T23:42:49;102559.99999999999;;;13.7;100.0
31532;BME280;23787;52.180;5.288;2022-08-06T23:47:49;102559.99999999999;;;13.9;100.0
31532;BME280;23787;52.180;5.288;2022-08-06T23:52:49;102550.0;;;13.8;100.0
31532;BME280;23787;52.180;5.288;2022-08-06T23:57:49;102550.0;;;13.9;100.0
